Time;durP1;ratioP1;P1;durP2;ratioP2;P2;SDS_P1;SDS_P2;PMS_P1;PMS_P2;Temp;Humidity;BMP_temperature;BMP_pressure;BME280_temperature;BME280_humidity;BME280_pressure;Samples;Min_cycle;Max_cycle;Signal;HPM_P1;HPM_P2
2022/03/04 00:01:14;;;;;;;81.47;25.75;;;-3275.50;95.30;;;;;;5078195;28;20027;-80
2022/03/04 00:03:39;;;;;;;89.53;26.73;;;-3275.60;95.40;;;;;;5063302;28;20162;-79
2022/03/04 00:06:05;;;;;;;88.30;27.10;;;-3275.70;95.30;;;;;;5060002;28;20028;-79
2022/03/04 00:08:31;;;;;;;94.80;26.55;;;-3275.70;95.30;;;;;;5067453;28;20029;-79
2022/03/04 00:10:56;;;;;;;84.07;25.73;;;-3275.90;95.40;;;;;;5071932;28;20471;-79
2022/03/04 00:13:22;;;;;;;81.20;25.75;;;-3275.90;95.30;;;;;;5060648;28;20024;-79
2022/03/04 00:15:48;;;;;;;89.43;27.13;;;-3276.00;95.30;;;;;;5064705;28;20360;-79
2022/03/04 00:18:14;;;;;;;85.15;25.60;;;-3276.00;95.20;;;;;;5067005;28;20068;-79
2022/03/04 00:20:40;;;;;;;83.47;26.52;;;-3276.00;95.30;;;;;;5069937;28;20406;-79
2022/03/04 00:23:05;;;;;;;74.93;24.83;;;-3276.00;95.20;;;;;;5069707;28;20024;-79
2022/03/04 00:25:31;;;;;;;86.13;25.75;;;-3276.10;95.20;;;;;;5066825;28;20029;-79
2022/03/04 00:27:56;;;;;;;82.85;26.45;;;-3276.20;95.20;;;;;;5061624;28;20529;-79
2022/03/04 00:30:22;;;;;;;78.88;26.42;;;-3276.20;95.20;;;;;;5058050;28;20115;-79
2022/03/04 00:32:47;;;;;;;80.30;25.50;;;-3276.30;95.20;;;;;;5052244;28;20036;-79
2022/03/04 00:35:13;;;;;;;80.43;25.10;;;-3276.30;95.20;;;;;;5057107;28;20041;-79
2022/03/04 00:37:39;;;;;;;63.17;23.65;;;-3276.40;95.10;;;;;;5065408;28;20117;-79
2022/03/04 00:40:05;;;;;;;70.55;24.33;;;-3276.40;95.20;;;;;;5062891;28;20083;-79
2022/03/04 00:42:31;;;;;;;70.38;21.23;;;-3276.50;95.20;;;;;;5060874;28;20029;-79
2022/03/04 00:44:57;;;;;;;69.47;21.27;;;-3276.60;95.20;;;;;;5055855;28;20099;-79
2022/03/04 00:47:22;;;;;;;76.05;23.45;;;-3276.60;95.10;;;;;;5058940;28;20029;-79
2022/03/04 00:49:48;;;;;;;68.13;21.65;;;-3276.70;95.20;;;;;;5056288;28;20033;-79
2022/03/04 00:52:13;;;;;;;70.97;24.27;;;0.00;95.10;;;;;;5062065;28;20032;-79
2022/03/04 00:54:39;;;;;;;77.15;25.23;;;0.00;95.10;;;;;;5059638;28;20033;-79
2022/03/04 00:57:04;;;;;;;66.70;22.35;;;0.00;95.00;;;;;;5066723;28;20033;-79
2022/03/04 00:59:30;;;;;;;69.97;22.52;;;0.00;95.00;;;;;;5069177;28;20046;-79
2022/03/04 01:01:56;;;;;;;65.43;22.90;;;0.00;95.00;;;;;;5061527;28;20052;-79
2022/03/04 01:04:21;;;;;;;76.18;25.02;;;0.00;95.00;;;;;;5056675;28;20025;-79
2022/03/04 01:06:47;;;;;;;62.67;22.85;;;0.00;95.00;;;;;;5069641;28;20052;-79
2022/03/04 01:09:13;;;;;;;61.17;22.95;;;0.10;95.00;;;;;;5061276;28;20025;-79
2022/03/04 01:11:38;;;;;;;70.55;23.77;;;0.00;94.90;;;;;;5062412;28;20032;-79
2022/03/04 01:14:05;;;;;;;64.68;24.02;;;0.10;94.90;;;;;;5058177;28;20025;-79
2022/03/04 01:16:31;;;;;;;59.97;22.88;;;0.10;94.90;;;;;;5063356;28;20037;-79
2022/03/04 01:18:57;;;;;;;56.40;23.45;;;0.10;94.90;;;;;;5061465;28;20033;-79
2022/03/04 01:21:22;;;;;;;64.45;22.40;;;0.10;94.90;;;;;;5067498;28;20383;-79
2022/03/04 01:23:48;;;;;;;54.20;22.08;;;0.20;94.90;;;;;;5058383;28;20472;-79
2022/03/04 01:26:13;;;;;;;59.65;23.15;;;0.20;94.90;;;;;;5065233;28;20021;-79
2022/03/04 01:28:39;;;;;;;59.20;22.80;;;0.20;94.90;;;;;;5062518;28;20032;-79
2022/03/04 01:31:05;;;;;;;52.35;21.23;;;0.20;94.90;;;;;;5062974;28;20028;-79
2022/03/04 01:33:30;;;;;;;55.47;22.63;;;0.30;94.80;;;;;;5074908;28;20048;-79
2022/03/04 01:35:56;;;;;;;58.97;22.33;;;0.30;94.80;;;;;;5055631;28;20043;-79
2022/03/04 01:38:21;;;;;;;53.55;21.52;;;0.30;94.80;;;;;;5060768;28;20036;-79
2022/03/04 01:40:47;;;;;;;53.42;21.02;;;0.30;94.80;;;;;;5068753;28;20479;-79
2022/03/04 01:43:13;;;;;;;55.03;21.38;;;0.40;94.70;;;;;;5061697;28;20019;-79
2022/03/04 01:45:38;;;;;;;54.28;21.17;;;0.40;94.70;;;;;;5063943;28;20024;-79
2022/03/04 01:48:04;;;;;;;53.53;21.52;;;0.40;94.80;;;;;;5061053;28;20107;-79
2022/03/04 01:50:30;;;;;;;52.75;22.15;;;0.40;94.70;;;;;;5058915;28;20041;-79
2022/03/04 01:52:56;;;;;;;50.33;20.70;;;0.40;94.70;;;;;;5060707;28;20408;-79
2022/03/04 01:55:21;;;;;;;59.67;23.08;;;0.40;94.70;;;;;;5059586;28;20099;-79
2022/03/04 01:57:47;;;;;;;45.05;20.77;;;0.50;94.70;;;;;;5059608;28;20078;-80
2022/03/04 02:00:14;;;;;;;46.13;20.10;;;0.50;94.70;;;;;;5068342;28;20025;-79
2022/03/04 02:02:41;;;;;;;46.20;21.05;;;0.40;94.60;;;;;;5067427;28;20029;-79
2022/03/04 02:05:07;;;;;;;52.40;21.08;;;0.40;94.60;;;;;;5067630;28;20032;-79
2022/03/04 02:07:33;;;;;;;50.55;20.45;;;0.40;94.60;;;;;;5060158;28;20475;-79
2022/03/04 02:09:59;;;;;;;41.13;20.00;;;0.50;94.70;;;;;;5061028;28;20155;-79
2022/03/04 02:12:24;;;;;;;48.00;20.33;;;0.50;94.70;;;;;;5060530;28;20505;-79
2022/03/04 02:14:50;;;;;;;45.53;21.20;;;0.50;94.60;;;;;;5058939;28;20037;-79
2022/03/04 02:17:15;;;;;;;49.72;21.38;;;0.50;94.60;;;;;;5062604;28;20029;-79
2022/03/04 02:19:41;;;;;;;51.20;22.50;;;0.50;94.70;;;;;;5055845;28;20036;-79
2022/03/04 02:22:09;;;;;;;45.65;20.02;;;0.60;94.60;;;;;;5060507;28;20479;-79
2022/03/04 02:24:35;;;;;;;41.97;19.67;;;0.50;94.60;;;;;;5067502;28;20086;-79
2022/03/04 02:27:03;;;;;;;44.17;19.48;;;0.50;94.60;;;;;;5062035;28;20425;-79
2022/03/04 02:29:34;;;;;;;47.08;19.65;;;0.60;94.60;;;;;;5062601;28;20539;-79
2022/03/04 02:32:00;;;;;;;58.35;21.17;;;0.50;94.60;;;;;;5058319;28;20055;-79
2022/03/04 02:34:25;;;;;;;42.13;20.13;;;0.50;94.70;;;;;;5065101;28;20056;-79
2022/03/04 02:36:51;;;;;;;39.95;19.63;;;0.50;94.60;;;;;;5066489;28;20119;-79
2022/03/04 02:39:16;;;;;;;39.92;18.08;;;0.40;94.60;;;;;;5069211;28;20378;-79
2022/03/04 02:41:42;;;;;;;39.63;18.48;;;0.40;94.70;;;;;;5067750;28;20046;-79
2022/03/04 02:44:10;;;;;;;38.20;18.00;;;0.50;94.80;;;;;;5066900;28;20033;-79
2022/03/04 02:46:36;;;;;;;52.42;20.85;;;0.50;94.80;;;;;;5066436;28;20380;-79
2022/03/04 02:49:05;;;;;;;47.83;20.65;;;0.50;94.80;;;;;;5057233;28;20021;-79
2022/03/04 02:51:30;;;;;;;42.08;21.20;;;0.50;94.80;;;;;;5059554;28;20090;-79
2022/03/04 02:53:56;;;;;;;49.20;21.13;;;0.40;94.90;;;;;;5058648;28;20457;-79
2022/03/04 02:56:22;;;;;;;41.10;19.33;;;0.50;94.90;;;;;;5063206;28;20103;-79
2022/03/04 02:58:47;;;;;;;47.95;18.30;;;0.50;95.00;;;;;;5058420;28;20035;-79
2022/03/04 03:01:13;;;;;;;40.53;19.17;;;0.50;95.00;;;;;;5061852;28;20024;-79
2022/03/04 03:03:39;;;;;;;42.63;18.98;;;0.50;94.90;;;;;;5070451;28;20031;-80
2022/03/04 03:06:05;;;;;;;39.75;18.58;;;0.50;95.00;;;;;;5068671;28;20024;-79
2022/03/04 03:08:31;;;;;;;44.58;19.20;;;0.50;95.10;;;;;;5069817;28;20032;-79
2022/03/04 03:10:57;;;;;;;46.70;20.35;;;0.60;95.10;;;;;;5068750;28;20033;-79
2022/03/04 03:13:22;;;;;;;45.60;20.98;;;0.60;95.00;;;;;;5059766;28;20036;-79
2022/03/04 03:15:48;;;;;;;47.45;18.88;;;0.60;95.00;;;;;;5064103;28;20028;-79
2022/03/04 03:18:15;;;;;;;41.25;19.70;;;0.60;95.00;;;;;;5067534;28;20479;-79
2022/03/04 03:20:40;;;;;;;48.60;20.30;;;0.60;95.00;;;;;;5061556;28;20041;-79
2022/03/04 03:23:06;;;;;;;45.03;20.67;;;0.60;95.00;;;;;;5056230;28;20016;-79
2022/03/04 03:25:31;;;;;;;44.72;20.42;;;0.60;95.00;;;;;;5067410;28;20387;-79
2022/03/04 03:27:57;;;;;;;43.88;19.70;;;0.60;95.00;;;;;;5061916;28;20017;-79
2022/03/04 03:30:23;;;;;;;44.13;20.38;;;0.60;95.00;;;;;;5069555;28;20063;-79
2022/03/04 03:32:49;;;;;;;44.67;20.20;;;0.60;95.10;;;;;;5055610;28;20021;-79
2022/03/04 03:35:14;;;;;;;47.83;21.70;;;0.60;95.10;;;;;;5066972;28;20479;-79
2022/03/04 03:37:40;;;;;;;58.70;21.65;;;0.70;95.10;;;;;;5061979;28;20029;-79
2022/03/04 03:40:09;;;;;;;52.35;22.20;;;0.60;95.00;;;;;;5074579;28;20059;-79
2022/03/04 03:42:35;;;;;;;45.42;20.90;;;0.70;95.10;;;;;;5070137;28;20112;-79
2022/03/04 03:45:00;;;;;;;56.45;21.02;;;0.60;95.00;;;;;;5065603;28;20064;-79
2022/03/04 03:47:26;;;;;;;46.05;21.77;;;0.60;95.00;;;;;;5067879;28;20068;-79
2022/03/04 03:49:52;;;;;;;48.30;20.70;;;0.60;95.00;;;;;;5062109;28;20025;-79
2022/03/04 03:52:17;;;;;;;45.47;20.02;;;0.60;95.00;;;;;;5061888;28;20081;-79
2022/03/04 03:54:43;;;;;;;44.67;19.30;;;0.60;95.00;;;;;;5064328;28;20051;-79
2022/03/04 03:57:10;;;;;;;46.65;21.05;;;0.60;95.10;;;;;;5067868;28;20392;-79
2022/03/04 03:59:36;;;;;;;51.67;21.50;;;0.60;95.10;;;;;;5059354;28;20088;-79
2022/03/04 04:02:02;;;;;;;40.40;19.60;;;0.60;95.10;;;;;;5054616;28;20025;-79
2022/03/04 04:04:33;;;;;;;46.38;20.60;;;0.60;95.20;;;;;;5068963;28;20513;-79
2022/03/04 04:07:04;;;;;;;38.10;21.17;;;0.60;95.20;;;;;;5072747;28;20028;-79
2022/03/04 04:09:30;;;;;;;42.15;21.02;;;0.60;95.10;;;;;;5065562;28;20570;-79
2022/03/04 04:11:55;;;;;;;48.22;20.67;;;0.60;95.20;;;;;;5070656;28;20045;-79
2022/03/04 04:14:21;;;;;;;49.67;20.40;;;0.70;95.10;;;;;;5066754;28;20033;-79
2022/03/04 04:16:46;;;;;;;52.83;21.50;;;0.70;95.10;;;;;;5071480;28;20021;-79
2022/03/04 04:19:12;;;;;;;47.88;20.23;;;0.60;95.10;;;;;;5059457;28;20101;-79
2022/03/04 04:21:38;;;;;;;45.33;20.75;;;0.60;95.10;;;;;;5069998;28;20036;-79
2022/03/04 04:24:05;;;;;;;47.33;21.63;;;0.70;95.20;;;;;;5066381;28;20020;-80
2022/03/04 04:26:32;;;;;;;41.40;20.42;;;0.70;95.20;;;;;;5061008;28;20039;-80
2022/03/04 04:28:58;;;;;;;46.70;20.63;;;0.70;95.20;;;;;;5058025;28;20052;-80
2022/03/04 04:31:24;;;;;;;49.88;22.30;;;0.70;95.10;;;;;;5064220;28;20111;-80
2022/03/04 04:33:50;;;;;;;55.72;21.17;;;0.70;95.20;;;;;;5070591;28;20199;-80
2022/03/04 04:36:16;;;;;;;53.05;20.77;;;0.70;95.10;;;;;;5057657;28;20029;-79
2022/03/04 04:38:41;;;;;;;48.97;20.88;;;0.70;95.20;;;;;;5063221;28;20174;-79
2022/03/04 04:41:07;;;;;;;49.22;22.83;;;0.80;95.20;;;;;;5070942;28;20032;-79
2022/03/04 04:43:33;;;;;;;50.40;22.65;;;0.80;95.30;;;;;;5059637;28;20070;-79
2022/03/04 04:45:59;;;;;;;48.03;21.48;;;0.80;95.20;;;;;;5059866;28;20021;-80
2022/03/04 04:48:24;;;;;;;49.08;21.48;;;0.80;95.20;;;;;;5071165;28;20032;-80
2022/03/04 04:50:50;;;;;;;54.25;22.55;;;0.80;95.10;;;;;;5069861;28;20624;-80
2022/03/04 04:53:16;;;;;;;54.28;22.58;;;0.80;95.10;;;;;;5055016;28;20124;-81
2022/03/04 04:55:42;;;;;;;53.83;22.08;;;0.80;95.20;;;;;;5057202;28;20178;-80
2022/03/04 04:58:08;;;;;;;45.53;22.80;;;0.90;95.10;;;;;;5062717;28;20103;-80
2022/03/04 05:00:33;;;;;;;54.85;21.88;;;0.90;95.20;;;;;;5068287;28;20044;-80
2022/03/04 05:02:59;;;;;;;62.30;23.73;;;0.90;95.20;;;;;;5070489;28;20044;-80
2022/03/04 05:05:24;;;;;;;49.13;22.85;;;0.90;95.20;;;;;;5071012;28;20029;-80
2022/03/04 05:07:50;;;;;;;61.88;21.98;;;0.90;95.20;;;;;;5071460;28;20028;-80
2022/03/04 05:10:15;;;;;;;53.55;23.70;;;0.80;95.10;;;;;;5060300;28;20104;-80
2022/03/04 05:12:41;;;;;;;57.03;22.70;;;0.90;95.10;;;;;;5064241;28;20036;-80
2022/03/04 05:15:07;;;;;;;59.58;23.55;;;0.80;95.10;;;;;;5058327;28;20507;-79
2022/03/04 05:17:33;;;;;;;54.95;23.20;;;0.80;95.10;;;;;;5059335;28;20037;-80
2022/03/04 05:19:58;;;;;;;48.13;22.67;;;0.80;95.10;;;;;;5064109;28;20036;-80
2022/03/04 05:22:24;;;;;;;52.55;23.13;;;0.80;95.10;;;;;;5066355;28;20497;-80
2022/03/04 05:24:50;;;;;;;39.25;19.00;;;0.80;95.10;;;;;;5057810;28;21119;-79
2022/03/04 05:27:15;;;;;;;46.60;19.35;;;0.80;95.10;;;;;;5068173;28;20031;-79
2022/03/04 05:29:41;;;;;;;56.53;20.23;;;0.70;95.10;;;;;;5060124;28;20025;-79
2022/03/04 05:32:07;;;;;;;40.20;20.98;;;0.80;95.10;;;;;;5067162;28;20074;-79
2022/03/04 05:34:33;;;;;;;47.90;22.23;;;0.80;95.20;;;;;;5053352;28;20548;-80
2022/03/04 05:36:59;;;;;;;53.25;18.65;;;0.80;95.10;;;;;;5067253;28;20025;-80
2022/03/04 05:39:24;;;;;;;54.55;18.38;;;0.70;95.00;;;;;;5068346;28;20033;-79
2022/03/04 05:41:50;;;;;;;36.33;18.00;;;0.70;95.10;;;;;;5071324;28;20049;-79
2022/03/04 05:44:15;;;;;;;42.65;18.45;;;0.70;95.10;;;;;;5059725;28;20021;-82
2022/03/04 05:46:41;;;;;;;40.83;17.83;;;0.70;95.10;;;;;;5061078;28;20068;-80
2022/03/04 05:49:07;;;;;;;34.45;16.92;;;0.60;95.10;;;;;;5065382;28;20085;-80
2022/03/04 05:51:33;;;;;;;42.10;16.83;;;0.60;95.10;;;;;;5062657;28;20118;-80
2022/03/04 05:53:59;;;;;;;36.28;16.83;;;0.60;95.10;;;;;;5062451;28;20032;-80
2022/03/04 05:56:25;;;;;;;43.90;18.60;;;0.60;95.10;;;;;;5053971;28;20033;-80
2022/03/04 05:58:50;;;;;;;39.00;18.92;;;0.60;95.20;;;;;;5062653;28;20053;-79
2022/03/04 06:01:16;;;;;;;32.30;16.92;;;0.60;95.20;;;;;;5067594;28;20411;-79
2022/03/04 06:03:42;;;;;;;31.63;16.75;;;0.60;95.20;;;;;;5068487;28;20024;-79
2022/03/04 06:06:11;;;;;;;32.33;15.88;;;0.60;95.20;;;;;;5064929;28;20439;-80
2022/03/04 06:08:37;;;;;;;29.38;14.48;;;0.50;95.10;;;;;;5052057;28;20024;-79
2022/03/04 06:11:02;;;;;;;29.92;15.15;;;0.50;95.20;;;;;;5061244;28;20731;-79
2022/03/04 06:13:28;;;;;;;29.85;14.52;;;0.50;95.10;;;;;;5058458;28;20088;-79
2022/03/04 06:15:53;;;;;;;25.70;14.00;;;0.40;95.00;;;;;;5063165;28;20025;-80
2022/03/04 06:18:19;;;;;;;37.70;14.77;;;0.40;95.00;;;;;;5067138;28;20495;-79
2022/03/04 06:20:45;;;;;;;28.40;14.35;;;0.40;95.00;;;;;;5057721;28;20752;-79
2022/03/04 06:23:11;;;;;;;36.20;16.77;;;0.40;95.10;;;;;;5055993;28;20028;-79
2022/03/04 06:25:37;;;;;;;28.20;15.95;;;0.40;95.10;;;;;;5064087;28;20063;-79
2022/03/04 06:28:04;;;;;;;30.55;15.13;;;0.50;95.20;;;;;;5068110;28;20067;-79
2022/03/04 06:30:32;;;;;;;28.13;14.77;;;0.40;95.00;;;;;;5067430;28;20025;-79
2022/03/04 06:35:44;;;;;;;28.63;13.32;;;0.40;95.10;;;;;;5061825;28;20087;-79
2022/03/04 06:38:10;;;;;;;31.10;14.55;;;0.40;94.90;;;;;;5061044;28;20453;-79
2022/03/04 06:40:36;;;;;;;29.95;14.73;;;0.40;95.00;;;;;;5066032;28;20028;-79
2022/03/04 06:43:05;;;;;;;25.13;13.48;;;0.40;95.00;;;;;;5062940;28;20626;-78
2022/03/04 06:45:31;;;;;;;26.85;13.50;;;0.40;95.00;;;;;;5058538;28;20025;-78
2022/03/04 06:47:57;;;;;;;19.13;10.80;;;0.30;94.80;;;;;;5054756;28;20033;-78
2022/03/04 06:50:23;;;;;;;23.58;12.60;;;0.30;94.90;;;;;;5057717;28;20132;-78
2022/03/04 06:52:50;;;;;;;26.80;12.60;;;0.20;94.80;;;;;;5068518;28;20024;-79
2022/03/04 06:55:16;;;;;;;25.42;12.93;;;0.20;94.80;;;;;;5069001;28;20025;-79
2022/03/04 06:57:41;;;;;;;26.48;14.07;;;0.30;94.80;;;;;;5060558;28;20031;-79
2022/03/04 07:00:10;;;;;;;25.10;13.10;;;0.40;94.90;;;;;;5061199;28;20472;-78
2022/03/04 07:02:37;;;;;;;27.38;13.68;;;0.40;94.90;;;;;;5068151;28;20028;-79
2022/03/04 07:05:04;;;;;;;24.20;12.98;;;0.40;94.80;;;;;;5070036;28;20475;-77
2022/03/04 07:07:29;;;;;;;23.38;11.90;;;0.40;94.70;;;;;;5062225;28;20120;-78
2022/03/04 07:09:55;;;;;;;24.38;12.88;;;0.40;94.70;;;;;;5067903;28;20103;-78
2022/03/04 07:12:20;;;;;;;23.33;13.15;;;0.30;94.70;;;;;;5066628;28;20386;-78
2022/03/04 07:14:46;;;;;;;24.13;12.60;;;0.30;94.70;;;;;;5071801;28;20029;-78
2022/03/04 07:17:14;;;;;;;27.85;13.43;;;0.30;94.60;;;;;;5077181;28;20051;-78
2022/03/04 07:19:40;;;;;;;21.20;11.02;;;0.30;94.60;;;;;;5065977;28;20033;-78
2022/03/04 07:22:06;;;;;;;20.42;11.60;;;0.40;94.60;;;;;;5062134;28;20029;-78
2022/03/04 07:24:31;;;;;;;19.80;10.85;;;0.40;94.60;;;;;;5068021;28;20063;-78
2022/03/04 07:26:58;;;;;;;20.38;10.93;;;0.50;94.60;;;;;;5072949;28;20020;-78
2022/03/04 07:29:24;;;;;;;22.40;12.10;;;0.40;94.40;;;;;;5068865;28;20064;-79
2022/03/04 07:31:51;;;;;;;20.65;11.50;;;0.50;94.50;;;;;;5064695;28;20125;-82
2022/03/04 07:34:16;;;;;;;21.15;11.27;;;0.60;94.40;;;;;;5063522;28;20056;-81
2022/03/04 07:36:41;;;;;;;22.80;12.77;;;0.70;94.30;;;;;;5067779;28;20032;-79
2022/03/04 07:39:07;;;;;;;22.50;11.95;;;0.60;94.10;;;;;;5071991;28;20032;-79
2022/03/04 07:41:33;;;;;;;21.13;11.65;;;0.60;94.10;;;;;;5070625;28;20534;-79
2022/03/04 07:43:59;;;;;;;19.58;11.02;;;0.50;94.00;;;;;;5074512;28;20032;-79
2022/03/04 07:46:25;;;;;;;21.40;11.07;;;0.60;94.00;;;;;;5076448;28;20017;-79
2022/03/04 07:48:51;;;;;;;22.10;11.70;;;0.60;93.90;;;;;;5075783;28;20040;-79
2022/03/04 07:51:16;;;;;;;22.55;12.20;;;0.60;94.00;;;;;;5061449;28;20027;-78
2022/03/04 07:53:42;;;;;;;23.33;11.95;;;0.70;94.10;;;;;;5072122;28;20407;-79
2022/03/04 07:56:09;;;;;;;21.05;11.38;;;0.70;93.80;;;;;;5075316;28;20025;-78
2022/03/04 07:58:34;;;;;;;20.85;11.85;;;0.80;93.90;;;;;;5071499;28;20016;-79
2022/03/04 08:01:00;;;;;;;21.38;11.38;;;0.80;93.60;;;;;;5065004;28;20036;-78
2022/03/04 08:03:25;;;;;;;20.45;10.82;;;0.90;93.70;;;;;;5066097;28;20020;-79
2022/03/04 08:05:51;;;;;;;21.60;12.25;;;0.90;93.50;;;;;;5072054;28;20060;-79
2022/03/04 08:08:16;;;;;;;20.73;11.52;;;1.00;93.50;;;;;;5071361;28;20151;-79
2022/03/04 08:10:42;;;;;;;19.15;11.07;;;1.00;93.50;;;;;;5063331;28;20028;-79
2022/03/04 08:13:07;;;;;;;18.80;10.00;;;1.10;93.50;;;;;;5067377;28;20500;-78
2022/03/04 08:15:33;;;;;;;15.80;8.88;;;0.90;93.20;;;;;;5068843;28;20078;-78
2022/03/04 08:17:58;;;;;;;15.88;8.10;;;0.90;93.10;;;;;;5072594;28;20025;-78
2022/03/04 08:20:26;;;;;;;16.98;8.82;;;0.90;92.80;;;;;;5072399;28;20074;-78
2022/03/04 08:22:52;;;;;;;14.65;8.57;;;1.10;93.00;;;;;;5070540;28;20025;-79
2022/03/04 08:25:18;;;;;;;12.82;7.20;;;1.10;92.90;;;;;;5063778;28;20029;-81
2022/03/04 08:27:44;;;;;;;16.17;8.18;;;0.90;92.40;;;;;;5055102;28;20547;-80
2022/03/04 08:30:11;;;;;;;17.77;7.70;;;1.00;92.50;;;;;;5069305;28;20020;-79
2022/03/04 08:32:37;;;;;;;14.63;7.95;;;1.00;92.30;;;;;;5064917;28;20106;-79
2022/03/04 08:35:04;;;;;;;13.35;8.35;;;1.10;92.30;;;;;;5064433;28;20045;-80
2022/03/04 08:37:29;;;;;;;14.38;8.45;;;1.10;92.20;;;;;;5072865;28;20017;-80
2022/03/04 08:39:55;;;;;;;14.40;8.38;;;1.00;91.80;;;;;;5065593;28;20036;-80
2022/03/04 08:42:21;;;;;;;15.15;7.57;;;1.00;91.80;;;;;;5067881;28;21167;-79
2022/03/04 08:44:47;;;;;;;16.08;7.47;;;1.10;91.90;;;;;;5070201;28;20028;-80
2022/03/04 08:47:12;;;;;;;11.70;7.10;;;1.20;91.70;;;;;;5068685;28;20020;-79
2022/03/04 08:49:38;;;;;;;12.90;7.82;;;1.10;91.40;;;;;;5060962;28;20033;-80
2022/03/04 08:52:04;;;;;;;13.38;7.70;;;1.00;91.10;;;;;;5070232;28;20032;-79
2022/03/04 08:54:30;;;;;;;11.77;6.70;;;1.10;91.40;;;;;;5065903;28;20526;-79
2022/03/04 08:56:55;;;;;;;12.68;7.53;;;1.20;91.20;;;;;;5058729;28;20035;-79
2022/03/04 08:59:21;;;;;;;11.75;7.35;;;1.20;91.10;;;;;;5064951;28;20029;-80
2022/03/04 09:01:46;;;;;;;11.18;6.53;;;1.40;91.40;;;;;;5060481;28;20067;-80
2022/03/04 09:04:14;;;;;;;13.52;7.20;;;1.30;90.90;;;;;;5069822;28;20029;-80
2022/03/04 09:06:40;;;;;;;11.75;7.00;;;1.10;90.40;;;;;;5066779;28;20044;-79
2022/03/04 09:09:06;;;;;;;12.93;6.80;;;1.20;90.50;;;;;;5069438;28;20074;-80
2022/03/04 09:11:32;;;;;;;12.73;7.22;;;1.30;90.80;;;;;;5065454;28;20028;-80
2022/03/04 09:13:57;;;;;;;11.13;6.25;;;1.40;90.90;;;;;;5056464;28;20051;-80
2022/03/04 09:16:23;;;;;;;11.23;6.80;;;1.70;90.80;;;;;;5064392;28;20395;-80
2022/03/04 09:18:48;;;;;;;9.60;5.75;;;1.60;90.20;;;;;;5070935;28;20039;-80
2022/03/04 09:21:14;;;;;;;11.05;6.13;;;1.50;89.50;;;;;;5062640;28;20117;-80
2022/03/04 09:23:40;;;;;;;10.65;5.95;;;1.50;89.50;;;;;;5062493;28;20024;-80
2022/03/04 09:26:05;;;;;;;11.25;5.93;;;1.70;89.50;;;;;;5061563;28;20024;-79
2022/03/04 09:28:31;;;;;;;9.43;5.70;;;2.10;89.30;;;;;;5062386;28;20037;-80
2022/03/04 09:30:57;;;;;;;9.82;5.75;;;2.10;88.20;;;;;;5066468;28;20025;-79
2022/03/04 09:33:22;;;;;;;9.48;5.70;;;2.00;88.10;;;;;;5071069;28;20036;-80
2022/03/04 09:35:48;;;;;;;9.48;5.10;;;2.10;87.90;;;;;;5069460;28;20062;-80
2022/03/04 09:38:14;;;;;;;9.15;5.68;;;2.00;87.50;;;;;;5071222;28;20115;-79
2022/03/04 09:40:39;;;;;;;9.88;5.50;;;1.80;87.60;;;;;;5068385;28;20032;-79
2022/03/04 09:43:07;;;;;;;10.20;5.85;;;1.80;88.00;;;;;;5068734;28;20531;-79
2022/03/04 09:45:32;;;;;;;9.43;5.82;;;1.50;87.80;;;;;;5057450;28;20036;-79
2022/03/04 09:48:00;;;;;;;10.50;6.18;;;1.60;88.50;;;;;;5069811;28;20025;-79
2022/03/04 09:50:27;;;;;;;10.43;6.38;;;1.60;88.60;;;;;;5057279;28;20082;-79
2022/03/04 09:52:52;;;;;;;10.45;6.20;;;2.10;88.80;;;;;;5069814;28;20145;-79
2022/03/04 09:55:18;;;;;;;9.38;5.57;;;2.00;88.00;;;;;;5069934;28;20127;-79
2022/03/04 09:57:43;;;;;;;10.30;5.55;;;2.10;87.60;;;;;;5060817;28;20028;-79
2022/03/04 10:00:11;;;;;;;10.73;5.53;;;2.00;87.20;;;;;;5065448;28;20055;-80
2022/03/04 10:02:37;;;;;;;10.05;5.68;;;1.70;87.70;;;;;;5067803;28;20392;-80
2022/03/04 10:05:03;;;;;;;8.57;5.28;;;1.80;88.00;;;;;;5053819;28;20028;-80
2022/03/04 10:07:42;;;;;;;9.50;5.60;;;2.10;87.90;;;;;;5069712;28;20021;-80
2022/03/04 10:10:14;;;;;;;10.80;5.30;;;2.10;87.30;;;;;;5068035;28;20024;-80
2022/03/04 10:12:50;;;;;;;;;;;1.90;86.90;;;;;;5063024;28;20033;-80
2022/03/04 10:15:18;;;;;;;9.45;4.88;;;2.20;87.10;;;;;;5057978;28;19909;-79
2022/03/04 10:18:14;;;;;;;10.10;5.50;;;2.40;87.10;;;;;;5062285;28;20430;-80
2022/03/04 10:20:43;;;;;;;8.93;4.95;;;2.50;86.10;;;;;;5056461;28;20068;-80
2022/03/04 10:23:09;;;;;;;9.05;5.18;;;2.70;86.20;;;;;;5060478;28;20188;-80
2022/03/04 10:25:35;;;;;;;8.60;5.07;;;2.90;86.00;;;;;;5061044;28;20067;-80
2022/03/04 10:28:09;;;;;;;8.48;4.68;;;3.00;85.10;;;;;;5065635;28;20091;-80
2022/03/04 10:30:35;;;;;;;8.35;4.97;;;3.10;84.70;;;;;;5055394;28;20036;-80
2022/03/04 10:33:12;;;;;;;8.50;4.75;;;3.10;83.60;;;;;;5065512;28;20036;-80
2022/03/04 10:35:38;;;;;;;8.77;4.07;;;3.30;83.80;;;;;;5076515;28;20074;-81
2022/03/04 10:38:05;;;;;;;7.68;4.28;;;3.20;82.70;;;;;;5066398;28;20468;-80
2022/03/04 10:40:32;;;;;;;10.93;4.85;;;3.20;83.50;;;;;;5055447;28;20129;-80
2022/03/04 10:43:06;;;;;;;8.18;4.68;;;3.20;82.20;;;;;;5062588;28;20048;-80
2022/03/04 10:45:33;;;;;;;8.48;4.13;;;3.50;81.70;;;;;;5060028;28;20051;-80
2022/03/04 10:48:07;;;;;;;8.65;4.68;;;4.00;81.70;;;;;;5057310;28;20019;-80
2022/03/04 10:50:35;;;;;;;9.70;5.22;;;4.10;80.30;;;;;;5053714;28;20045;-80
2022/03/04 10:53:14;;;;;;;7.50;4.55;;;3.90;79.80;;;;;;5062145;28;20032;-80
2022/03/04 10:55:47;;;;;;;11.10;5.07;;;3.70;79.90;;;;;;5061444;28;20387;-80
2022/03/04 10:58:19;;;;;;;9.50;4.90;;;3.50;80.10;;;;;;5065059;28;20112;-81
2022/03/04 11:00:50;;;;;;;8.68;4.45;;;3.70;81.10;;;;;;5060288;28;20033;-81
2022/03/04 11:03:21;;;;;;;10.20;5.00;;;3.60;80.10;;;;;;5066101;28;20028;-81
2022/03/04 11:05:48;;;;;;;9.50;5.18;;;3.60;79.90;;;;;;5066809;28;20512;-81
2022/03/04 11:08:14;;;;;;;8.88;4.68;;;3.60;80.30;;;;;;5070602;28;20478;-79
2022/03/04 11:10:40;;;;;;;8.57;4.60;;;4.00;80.30;;;;;;5071998;28;20181;-79
2022/03/04 11:13:07;;;;;;;8.93;4.68;;;4.20;79.80;;;;;;5060228;28;20104;-78
2022/03/04 11:15:34;;;;;;;9.70;4.80;;;4.50;79.10;;;;;;5057797;28;20024;-79
2022/03/04 11:18:03;;;;;;;8.43;4.55;;;5.10;78.20;;;;;;5068935;28;20024;-79
2022/03/04 11:20:29;;;;;;;10.18;4.07;;;5.40;76.70;;;;;;5061961;28;20118;-78
2022/03/04 11:22:54;;;;;;;6.82;4.07;;;5.00;76.00;;;;;;5060572;28;20083;-79
2022/03/04 11:25:22;;;;;;;6.43;3.90;;;5.50;76.20;;;;;;5062988;28;20029;-79
2022/03/04 11:27:51;;;;;;;6.20;3.75;;;5.40;74.70;;;;;;5058320;28;20060;-79
2022/03/04 11:30:32;;;;;;;9.63;3.47;;;5.60;73.80;;;;;;5067956;28;20036;-79
2022/03/04 11:33:05;;;;;;;8.07;3.80;;;5.90;74.40;;;;;;5064407;28;20548;-79
2022/03/04 11:35:43;;;;;;;7.35;4.10;;;6.10;73.60;;;;;;5068406;28;20044;-79
2022/03/04 11:38:10;;;;;;;6.63;3.80;;;5.90;72.90;;;;;;5057618;28;20498;-78
2022/03/04 11:40:38;;;;;;;7.10;3.33;;;6.30;73.60;;;;;;5066735;28;20016;-79
2022/03/04 11:43:09;;;;;;;7.25;3.72;;;6.60;72.70;;;;;;5055432;28;20357;-79
2022/03/04 11:45:36;;;;;;;5.30;3.17;;;6.20;70.10;;;;;;5057628;28;20112;-79
2022/03/04 11:48:11;;;;;;;6.80;3.00;;;6.50;70.10;;;;;;5058777;28;20029;-78
2022/03/04 11:50:46;;;;;;;5.80;3.22;;;6.90;69.40;;;;;;5064141;28;20028;-78
2022/03/04 11:53:17;;;;;;;5.90;3.33;;;6.80;69.50;;;;;;5070360;28;20412;-79
2022/03/04 11:56:15;;;;;;;5.70;3.30;;;7.00;68.60;;;;;;5067707;28;20107;-79
2022/03/04 11:59:04;;;;;;;7.20;3.63;;;7.00;67.90;;;;;;5080432;28;20037;-79
2022/03/04 12:01:34;;;;;;;5.82;2.63;;;7.60;67.10;;;;;;5069656;28;20052;-79
2022/03/04 12:04:27;;;;;;;6.25;2.40;;;7.80;66.60;;;;;;5069671;28;20048;-79
2022/03/04 12:07:06;;;;;;;3.95;2.25;;;7.50;64.90;;;;;;5065073;28;20498;-79
2022/03/04 12:09:32;;;;;;;3.78;2.10;;;7.20;63.30;;;;;;5071607;28;20028;-79
2022/03/04 12:12:13;;;;;;;4.13;2.13;;;7.40;65.80;;;;;;5065362;28;20052;-80
2022/03/04 12:14:46;;;;;;;4.03;2.13;;;7.40;63.20;;;;;;5069182;28;20029;-80
2022/03/04 12:17:12;;;;;;;4.47;2.28;;;7.70;65.30;;;;;;5065380;28;20042;-80
2022/03/04 12:19:38;;;;;;;5.45;2.22;;;7.90;64.10;;;;;;5064072;28;20085;-80
2022/03/04 12:22:05;;;;;;;4.28;2.35;;;8.30;62.60;;;;;;5072323;28;20025;-79
2022/03/04 12:24:33;;;;;;;4.07;2.35;;;8.20;62.00;;;;;;5070945;28;20032;-79
2022/03/04 12:26:59;;;;;;;3.92;1.98;;;7.60;63.40;;;;;;5062836;28;20028;-80
2022/03/04 12:29:45;;;;;;;6.03;2.08;;;8.20;61.70;;;;;;5068688;28;20500;-79
2022/03/04 12:32:12;;;;;;;4.38;2.20;;;8.40;61.00;;;;;;5065692;28;20036;-80
2022/03/04 12:34:52;;;;;;;4.25;2.30;;;8.90;60.30;;;;;;5067421;28;20084;-80
2022/03/04 12:37:19;;;;;;;3.45;1.92;;;8.80;58.60;;;;;;5069796;28;20039;-79
2022/03/04 12:39:50;;;;;;;3.47;1.80;;;9.50;59.90;;;;;;5060577;28;20078;-79
2022/03/04 12:42:17;;;;;;;3.92;1.85;;;9.50;58.20;;;;;;5066262;28;20040;-79